createdAt,value
2019-05-16T00:03:20.652Z,4.7
2019-05-16T00:06:50.709Z,4.83
2019-05-16T00:10:21.129Z,3.74
2019-05-16T00:13:51.138Z,5.21
2019-05-16T00:17:21.182Z,4.38
2019-05-16T00:20:51.321Z,5.56
2019-05-16T00:24:21.438Z,4.9
2019-05-16T00:27:51.560Z,4.92
2019-05-16T00:31:21.601Z,5.5
2019-05-16T00:34:51.694Z,4.89
2019-05-16T00:38:21.784Z,5.96
2019-05-16T00:41:51.781Z,4.25
2019-05-16T00:45:21.952Z,5.43
2019-05-16T00:48:52.065Z,4.06
2019-05-16T00:52:22.172Z,4.11
2019-05-16T00:55:52.965Z,5.65
2019-05-16T00:59:23.096Z,5.3
2019-05-16T01:00:44.193Z,5.41
2019-05-16T01:04:14.224Z,5.09
2019-05-16T01:07:44.307Z,4.61
2019-05-16T01:11:14.447Z,4.24
2019-05-16T01:14:44.614Z,4.45
2019-05-16T01:18:14.748Z,4.95
2019-05-16T01:21:44.845Z,5.83
2019-05-16T01:25:15.088Z,4.3
2019-05-16T01:28:45.458Z,5.38
2019-05-16T01:32:15.528Z,4.48
2019-05-16T01:35:47.642Z,5.4
2019-05-16T01:39:18.301Z,5.39
2019-05-16T01:42:49.011Z,4.62
2019-05-16T01:46:19.186Z,4.79
2019-05-16T01:49:49.230Z,4.88
2019-05-16T03:26:52.526Z,5.46
2019-05-16T03:30:24.153Z,5.34
2019-05-16T03:33:59.859Z,4.97
2019-05-16T03:37:53.931Z,4.65
2019-05-16T03:41:26.157Z,5.41
2019-05-16T03:44:56.362Z,5.39
2019-05-16T03:48:26.447Z,5.08
2019-05-16T03:51:56.429Z,4.42
2019-05-16T03:55:26.528Z,3.74
2019-05-16T03:58:56.614Z,5.31
2019-05-16T04:02:26.732Z,4.35
2019-05-16T04:05:56.734Z,4.86
2019-05-16T04:09:26.825Z,3.66
2019-05-16T04:12:56.839Z,1.99
2019-05-16T04:16:26.935Z,2.38
2019-05-16T04:19:56.978Z,1.52
2019-05-16T04:23:27.046Z,1.05
2019-05-16T04:26:57.163Z,2.12
2019-05-16T04:30:31.011Z,0.9
2019-05-16T04:34:01.443Z,2.42
2019-05-16T04:37:31.614Z,1.49
2019-05-16T04:41:01.773Z,4.05
2019-05-16T04:44:32.029Z,1.04
2019-05-16T04:48:02.206Z,2.15
2019-05-16T04:51:32.322Z,0.91
2019-05-16T04:55:02.607Z,2.03
2019-05-16T04:58:32.791Z,4.04
2019-05-16T05:00:16.862Z,2.49
2019-05-16T05:04:02.120Z,0.95
2019-05-16T05:07:40.713Z,1.3
2019-05-16T05:11:10.929Z,1.41
2019-05-16T05:14:41.650Z,1.52
2019-05-16T05:18:11.809Z,1.51
2019-05-16T05:21:41.994Z,1.29
2019-05-16T05:25:12.182Z,3.92
2019-05-16T05:28:42.314Z,5.5
2019-05-16T05:32:14.359Z,4.95
2019-05-16T05:35:44.726Z,3.62
2019-05-16T05:39:15.633Z,2.49
2019-05-16T05:42:45.877Z,1.47
2019-05-16T05:46:15.907Z,2.06
2019-05-16T05:49:46.158Z,1.52
2019-05-16T05:53:16.187Z,1.84
2019-05-16T05:56:46.459Z,2.15
2019-05-16T06:00:16.952Z,2.33
2019-05-16T06:03:46.973Z,1.74
2019-05-16T06:07:17.170Z,2.89
2019-05-16T06:10:47.360Z,5.12
2019-05-16T06:14:17.439Z,2.25
2019-05-16T06:17:47.395Z,2.29
2019-05-16T06:21:20.082Z,5.9
2019-05-16T06:24:50.652Z,3.33
2019-05-16T06:28:21.288Z,2.28
2019-05-16T06:31:51.562Z,3.24
2019-05-16T06:35:24.095Z,1.69
2019-05-16T06:38:54.339Z,2.91
2019-05-16T06:42:24.327Z,2.2
2019-05-16T06:45:54.338Z,2.22
2019-05-16T06:49:24.438Z,2.79
2019-05-16T06:52:54.475Z,1.97
2019-05-16T06:56:24.474Z,2.1
2019-05-16T06:59:54.584Z,2.5
2019-05-16T07:00:16.640Z,2.66
2019-05-16T07:03:46.883Z,1.79
2019-05-16T07:07:16.872Z,2.73
2019-05-16T07:10:47.059Z,2.86
2019-05-16T07:14:17.217Z,4.01
2019-05-16T07:17:47.389Z,2.65
2019-05-16T07:21:19.984Z,5.56
2019-05-16T07:24:50.529Z,4.17
2019-05-16T07:28:21.178Z,3.56
2019-05-16T07:31:52.398Z,2.99
2019-05-16T07:35:22.700Z,3.41
2019-05-16T07:38:52.743Z,7.44
2019-05-16T07:42:22.932Z,2.45
2019-05-16T07:45:53.037Z,2.56
2019-05-16T07:49:23.159Z,2.81
2019-05-16T07:52:53.177Z,2.71
2019-05-16T07:56:23.237Z,2.48
2019-05-16T07:59:53.307Z,3.25
2019-05-16T08:03:23.340Z,4.78
2019-05-16T08:06:53.412Z,3.36
2019-05-16T08:10:36.926Z,3.1
2019-05-16T08:14:11.783Z,11.91
2019-05-16T08:17:44.492Z,2.65
2019-05-16T08:21:16.878Z,2.9
2019-05-16T08:24:47.331Z,4.01
2019-05-16T08:28:20.509Z,2.83
2019-05-16T08:31:52.736Z,3.62
2019-05-16T08:35:23.131Z,3.05
2019-05-16T08:38:53.114Z,3.36
2019-05-16T08:42:23.213Z,2.57
2019-05-16T08:45:53.301Z,4.2
2019-05-16T08:49:23.417Z,3.45
2019-05-16T08:52:53.570Z,3.01
2019-05-16T08:56:23.733Z,3.55
2019-05-16T08:59:53.881Z,6.29
2019-05-16T09:00:17.121Z,4.66
2019-05-16T09:03:47.260Z,5.28
2019-05-16T09:07:17.320Z,5.46
2019-05-16T09:10:59.600Z,4.97
2019-05-16T09:14:38.758Z,6.38
2019-05-16T09:18:09.207Z,5.11
2019-05-16T09:21:39.373Z,5.38
2019-05-16T09:25:09.672Z,5.97
2019-05-16T09:28:39.784Z,6.78
2019-05-16T09:32:16.896Z,5.57
2019-05-16T09:35:51.610Z,5.6
2019-05-16T09:39:21.578Z,6.08
2019-05-16T09:42:51.701Z,4.71
2019-05-16T09:46:21.846Z,5.15
2019-05-16T09:49:52.039Z,5.91
2019-05-16T09:53:22.147Z,4.47
2019-05-16T09:56:52.214Z,4.88
2019-05-16T10:00:26.719Z,4.85
2019-05-16T10:03:57.305Z,4.33
2019-05-16T10:07:28.318Z,4.29
2019-05-16T10:10:58.930Z,3.74
2019-05-16T10:14:29.033Z,5.1
2019-05-16T10:17:59.189Z,3.27
2019-05-16T10:21:29.214Z,3.8
2019-05-16T10:24:59.468Z,3.56
2019-05-16T10:28:29.583Z,3.89
2019-05-16T10:31:59.695Z,3.89
2019-05-16T10:35:30.224Z,3.71
2019-05-16T10:39:00.477Z,3.36
2019-05-16T10:42:30.621Z,4.7
2019-05-16T10:46:00.705Z,4.11
2019-05-16T10:49:36.756Z,3.27
2019-05-16T10:53:28.033Z,3.53
2019-05-16T10:57:12.952Z,4.4
2019-05-16T11:00:37.139Z,4.53
2019-05-16T11:04:37.599Z,3.52
2019-05-16T11:08:18.648Z,3
2019-05-16T11:11:48.780Z,2.59
2019-05-16T11:15:19.297Z,4.1
2019-05-16T11:18:49.417Z,3.16
2019-05-16T11:22:19.562Z,3.51
2019-05-16T11:25:49.647Z,3.44
2019-05-16T11:29:19.713Z,2.99
2019-05-16T11:32:49.856Z,3.3
2019-05-16T11:36:20.015Z,2.88
2019-05-16T11:39:50.112Z,3.1
2019-05-16T11:43:21.842Z,3.24
2019-05-16T11:46:52.153Z,2.7
2019-05-16T11:50:22.368Z,3.36
2019-05-16T11:53:52.571Z,3.45
2019-05-16T11:57:22.650Z,3.04
2019-05-16T12:00:52.888Z,3.52
2019-05-16T12:04:22.905Z,2.92
2019-05-16T12:07:56.500Z,2.8
2019-05-16T12:11:27.577Z,2.26
2019-05-16T12:14:58.331Z,2.89
2019-05-16T12:18:28.574Z,2.95
2019-05-16T12:21:58.525Z,3.04
2019-05-16T12:25:28.531Z,2.84
2019-05-16T12:28:58.566Z,3.45
2019-05-16T12:32:28.618Z,4.1
2019-05-16T12:35:58.709Z,3.66
2019-05-16T12:39:28.894Z,3.85
2019-05-16T12:42:59.020Z,4.2
2019-05-16T12:46:29.136Z,4.74
2019-05-16T12:49:59.260Z,4.04
2019-05-16T12:53:31.524Z,4.54
2019-05-16T12:57:02.086Z,4.89
2019-05-16T13:00:18.715Z,4.67
2019-05-16T13:03:49.237Z,5.18
2019-05-16T13:07:19.302Z,4.05
2019-05-16T13:10:49.461Z,6.15
2019-05-16T13:14:19.507Z,4.97
2019-05-16T13:17:49.594Z,4.4
2019-05-16T13:21:22.958Z,4.99
2019-05-16T13:24:53.379Z,3.79
2019-05-16T13:28:23.551Z,4.01
2019-05-16T13:31:53.766Z,3.95
2019-05-16T13:35:23.948Z,4.11
2019-05-16T13:38:56.871Z,4.05
2019-05-16T13:42:27.378Z,3.17
2019-05-16T13:45:57.729Z,3.86
2019-05-16T13:49:27.744Z,2.77
2019-05-16T13:52:58.626Z,3.56
2019-05-16T13:56:28.690Z,3.9
2019-05-16T13:59:59.012Z,4.96
2019-05-16T14:03:29.519Z,3.59
2019-05-16T14:06:59.508Z,3.9
2019-05-16T14:10:30.076Z,2.8
2019-05-16T14:14:00.280Z,3.64
2019-05-16T14:17:30.406Z,3.94
2019-05-16T14:21:00.528Z,4.19
2019-05-16T14:24:30.646Z,3.06
2019-05-16T14:28:00.809Z,3.97
2019-05-16T14:31:31.095Z,3.49
2019-05-16T14:35:01.085Z,3.34
2019-05-16T14:38:31.123Z,4.28
2019-05-16T14:42:01.260Z,3.01
2019-05-16T14:45:31.454Z,3.14
2019-05-16T14:49:01.602Z,3.46
2019-05-16T14:52:31.687Z,3.36
2019-05-16T14:56:01.802Z,4.16
2019-05-16T14:59:31.936Z,3.96
2019-05-16T15:00:18.415Z,4.41
2019-05-16T15:03:48.978Z,3.74
2019-05-16T15:07:19.539Z,3.5
2019-05-16T15:10:49.794Z,3.68
2019-05-16T15:14:19.948Z,3.83
2019-05-16T15:17:52.995Z,2.94
2019-05-16T15:21:23.181Z,3.79
2019-05-16T15:24:53.232Z,3.98
2019-05-16T15:28:26.974Z,3.83
2019-05-16T15:32:00.173Z,3.14
2019-05-16T15:35:30.613Z,3.7
2019-05-16T15:39:00.841Z,3.45
2019-05-16T15:42:30.981Z,4.71
2019-05-16T15:46:01.386Z,4.6
2019-05-16T15:49:31.588Z,3.92
2019-05-16T15:53:01.778Z,3.85
2019-05-16T15:56:32.683Z,3.1
2019-05-16T16:00:03.386Z,3.09
2019-05-16T16:03:33.405Z,3.71
2019-05-16T16:07:03.722Z,3.55
2019-05-16T16:10:37.780Z,3.92
2019-05-16T16:14:08.039Z,3.62
2019-05-16T16:17:38.382Z,4.59
2019-05-16T16:21:08.481Z,4.21
2019-05-16T16:24:38.520Z,4.05
2019-05-16T16:28:08.666Z,4.17
2019-05-16T16:31:38.695Z,4.33
2019-05-16T16:35:08.909Z,9.25
2019-05-16T16:38:38.989Z,3.32
2019-05-16T16:42:09.045Z,4.21
2019-05-16T16:45:39.085Z,3.99
2019-05-16T16:49:09.210Z,4.39
2019-05-16T16:52:39.351Z,4.41
2019-05-16T16:56:09.478Z,5.06
2019-05-16T16:59:39.554Z,4.29
2019-05-16T17:00:17.478Z,4.54
2019-05-16T17:03:47.866Z,4.09
2019-05-16T17:07:17.934Z,4.1
2019-05-16T17:10:48.044Z,3.1
2019-05-16T17:14:18.076Z,4.21
2019-05-16T17:17:48.078Z,3.04
2019-05-16T17:21:18.181Z,4.16
2019-05-16T17:24:48.210Z,4.49
2019-05-16T17:28:18.361Z,4.65
2019-05-16T17:31:56.365Z,4.21
2019-05-16T17:35:38.576Z,3.91
2019-05-16T17:39:09.098Z,5.19
2019-05-16T17:42:39.194Z,4.8
2019-05-16T17:46:09.283Z,4.39
2019-05-16T17:49:39.312Z,4.05
2019-05-16T17:53:09.494Z,4.43
2019-05-16T17:56:39.500Z,4.33
2019-05-16T18:00:12.876Z,4.75
2019-05-16T18:03:44.011Z,3.54
2019-05-16T18:07:14.367Z,4.28
2019-05-16T18:10:44.358Z,3.71
2019-05-16T18:14:16.949Z,4.17
2019-05-16T18:17:47.214Z,4.89
2019-05-16T18:21:17.322Z,3.92
2019-05-16T18:24:47.582Z,4.12
2019-05-16T18:28:17.819Z,4.25
2019-05-16T18:31:47.755Z,3.39
2019-05-16T18:35:17.992Z,3.9
2019-05-16T18:38:48.087Z,4.15
2019-05-16T18:42:18.166Z,5.03
2019-05-16T18:45:48.128Z,3.73
2019-05-16T18:49:18.315Z,4.76
2019-05-16T18:52:48.366Z,3.94
2019-05-16T18:56:18.421Z,3.88
2019-05-16T18:59:48.744Z,4.69
2019-05-16T19:00:17.886Z,4.72
2019-05-16T19:03:48.993Z,4.36
2019-05-16T19:07:19.252Z,3.61
2019-05-16T19:10:49.337Z,4.28
2019-05-16T19:14:19.419Z,4.15
2019-05-16T19:17:49.428Z,3.83
2019-05-16T19:21:19.576Z,3.91
2019-05-16T19:24:50.046Z,4.64
2019-05-16T19:28:19.999Z,4.91
2019-05-16T19:31:50.533Z,5.38
2019-05-16T19:35:20.880Z,4.65
2019-05-16T19:38:51.021Z,4.26
2019-05-16T19:42:21.149Z,4.28
2019-05-16T19:45:51.205Z,4.64
2019-05-16T19:49:21.315Z,4.69
2019-05-16T19:52:51.496Z,4.15
2019-05-16T19:56:21.652Z,4.56
2019-05-16T19:59:51.800Z,5.12
2019-05-16T20:03:21.943Z,4.02
2019-05-16T20:06:52.069Z,4.31
2019-05-16T20:10:22.346Z,4.54
2019-05-16T20:13:52.506Z,4.64
2019-05-16T20:17:22.612Z,4.45
2019-05-16T20:20:52.665Z,5.54
2019-05-16T20:24:22.765Z,4.26
2019-05-16T20:27:52.881Z,5.54
2019-05-16T20:31:22.960Z,4.56
2019-05-16T20:34:53.019Z,5.62
2019-05-16T20:38:23.115Z,5.58
2019-05-16T20:41:53.080Z,4.92
2019-05-16T20:45:23.285Z,5.36
2019-05-16T20:48:53.407Z,4.33
2019-05-16T20:52:23.443Z,5.17
2019-05-16T20:55:53.585Z,5.72
2019-05-16T20:59:23.717Z,5.33
2019-05-16T21:00:17.566Z,5.42
2019-05-16T21:03:47.782Z,5.45
2019-05-16T21:07:17.954Z,6.51
2019-05-16T21:10:48.163Z,5.02
2019-05-16T21:14:18.395Z,5.35
2019-05-16T21:17:48.442Z,5.44
2019-05-16T21:21:19.312Z,5.82
2019-05-16T21:24:49.562Z,5.62
2019-05-16T21:28:19.920Z,5.12
2019-05-16T21:31:50.152Z,5.64
2019-05-16T21:35:20.319Z,5.69
2019-05-16T21:38:50.451Z,5.61
2019-05-16T21:42:20.589Z,4.54
2019-05-16T21:45:50.615Z,5.94
2019-05-16T21:49:20.655Z,6.47
2019-05-16T21:52:50.689Z,5.75
2019-05-16T21:56:20.953Z,6.57
2019-05-16T21:59:50.970Z,5.5
2019-05-16T22:03:21.208Z,6.1
2019-05-16T22:06:51.311Z,5.93
2019-05-16T22:10:21.306Z,5.2
2019-05-16T22:13:51.449Z,6.45
2019-05-16T22:17:21.504Z,6.97
2019-05-16T22:20:51.663Z,5.97
2019-05-16T22:24:21.753Z,5.26
2019-05-16T22:27:51.884Z,6.2
2019-05-16T22:31:22.019Z,6.49
2019-05-16T22:34:52.228Z,5.78
2019-05-16T22:38:22.348Z,6.3
2019-05-16T22:41:52.496Z,8.2
2019-05-16T22:45:22.859Z,6.14
2019-05-16T22:48:52.937Z,6.55
2019-05-16T22:52:23.072Z,6.12
2019-05-16T22:55:53.161Z,7.41
2019-05-16T22:59:23.184Z,6
2019-05-16T23:00:22.053Z,7.8
2019-05-16T23:03:52.229Z,6.94
2019-05-16T23:07:22.271Z,5.78
2019-05-16T23:10:52.336Z,6.14
2019-05-16T23:14:22.425Z,6.66
2019-05-16T23:17:52.627Z,6.91
2019-05-16T23:21:22.746Z,6.41
2019-05-16T23:24:52.791Z,6.29
2019-05-16T23:28:22.830Z,7.12
2019-05-16T23:31:52.783Z,9.16
2019-05-16T23:35:22.908Z,6.28
2019-05-16T23:38:53.090Z,6.58
2019-05-16T23:42:23.191Z,6.26
2019-05-16T23:45:53.184Z,6.04
2019-05-16T23:49:23.263Z,6.73
2019-05-16T23:52:53.505Z,6.21
2019-05-16T23:56:23.593Z,6.33
2019-05-16T23:59:53.739Z,7.09
